sensor_id;sensor_type;location;lat;lon;timestamp;P1;durP1;ratioP1;P2;durP2;ratioP2
14858;SDS011;7521;51.700;6.874;2022-10-18T00:02:10;8.02;;;6.82;;
14858;SDS011;7521;51.700;6.874;2022-10-18T00:05:15;10.48;;;6.82;;
14858;SDS011;7521;51.700;6.874;2022-10-18T00:08:20;6.97;;;5.87;;
14858;SDS011;7521;51.700;6.874;2022-10-18T00:11:26;7.87;;;6.50;;
14858;SDS011;7521;51.700;6.874;2022-10-18T00:14:31;8.80;;;6.20;;
14858;SDS011;7521;51.700;6.874;2022-10-18T00:17:37;5.82;;;5.15;;
14858;SDS011;7521;51.700;6.874;2022-10-18T00:20:42;9.37;;;5.90;;
14858;SDS011;7521;51.700;6.874;2022-10-18T00:23:48;8.00;;;5.75;;
14858;SDS011;7521;51.700;6.874;2022-10-18T00:26:53;6.57;;;5.83;;
14858;SDS011;7521;51.700;6.874;2022-10-18T00:29:58;7.03;;;5.40;;
14858;SDS011;7521;51.700;6.874;2022-10-18T00:33:04;8.10;;;6.03;;
14858;SDS011;7521;51.700;6.874;2022-10-18T00:36:09;7.13;;;5.63;;
14858;SDS011;7521;51.700;6.874;2022-10-18T00:39:15;5.63;;;5.13;;
14858;SDS011;7521;51.700;6.874;2022-10-18T00:42:21;7.53;;;5.23;;
14858;SDS011;7521;51.700;6.874;2022-10-18T00:45:28;8.40;;;5.37;;
14858;SDS011;7521;51.700;6.874;2022-10-18T00:48:33;6.13;;;5.17;;
14858;SDS011;7521;51.700;6.874;2022-10-18T00:51:49;5.90;;;5.23;;
14858;SDS011;7521;51.700;6.874;2022-10-18T00:54:55;5.47;;;4.77;;
14858;SDS011;7521;51.700;6.874;2022-10-18T00:58:01;7.10;;;5.13;;
14858;SDS011;7521;51.700;6.874;2022-10-18T01:01:07;6.27;;;5.07;;
14858;SDS011;7521;51.700;6.874;2022-10-18T01:04:13;5.70;;;4.28;;
14858;SDS011;7521;51.700;6.874;2022-10-18T01:14:40;5.53;;;4.83;;
14858;SDS011;7521;51.700;6.874;2022-10-18T01:17:34;6.10;;;5.03;;
14858;SDS011;7521;51.700;6.874;2022-10-18T01:20:57;8.03;;;5.57;;
14858;SDS011;7521;51.700;6.874;2022-10-18T01:30:37;10.10;;;5.23;;
14858;SDS011;7521;51.700;6.874;2022-10-18T01:33:52;8.20;;;4.90;;
14858;SDS011;7521;51.700;6.874;2022-10-18T01:37:02;10.63;;;5.60;;
14858;SDS011;7521;51.700;6.874;2022-10-18T01:40:08;6.93;;;5.27;;
14858;SDS011;7521;51.700;6.874;2022-10-18T01:43:15;5.63;;;5.13;;
14858;SDS011;7521;51.700;6.874;2022-10-18T01:46:22;6.13;;;5.30;;
14858;SDS011;7521;51.700;6.874;2022-10-18T01:49:28;10.67;;;6.07;;
14858;SDS011;7521;51.700;6.874;2022-10-18T01:52:33;7.50;;;5.53;;
14858;SDS011;7521;51.700;6.874;2022-10-18T01:55:42;6.60;;;5.87;;
14858;SDS011;7521;51.700;6.874;2022-10-18T02:02:00;6.47;;;5.47;;
14858;SDS011;7521;51.700;6.874;2022-10-18T02:05:23;8.77;;;5.63;;
14858;SDS011;7521;51.700;6.874;2022-10-18T02:08:33;6.60;;;5.90;;
14858;SDS011;7521;51.700;6.874;2022-10-18T02:11:39;9.73;;;6.30;;
14858;SDS011;7521;51.700;6.874;2022-10-18T02:14:45;6.87;;;5.23;;
14858;SDS011;7521;51.700;6.874;2022-10-18T02:17:51;5.73;;;5.00;;
14858;SDS011;7521;51.700;6.874;2022-10-18T02:20:57;8.53;;;5.93;;
14858;SDS011;7521;51.700;6.874;2022-10-18T02:24:03;6.43;;;5.40;;
14858;SDS011;7521;51.700;6.874;2022-10-18T02:27:09;10.13;;;5.87;;
14858;SDS011;7521;51.700;6.874;2022-10-18T02:30:14;6.37;;;5.10;;
14858;SDS011;7521;51.700;6.874;2022-10-18T02:33:29;5.40;;;4.70;;
14858;SDS011;7521;51.700;6.874;2022-10-18T02:36:43;11.50;;;6.20;;
14858;SDS011;7521;51.700;6.874;2022-10-18T02:39:50;8.63;;;6.30;;
14858;SDS011;7521;51.700;6.874;2022-10-18T02:42:56;9.33;;;5.97;;
14858;SDS011;7521;51.700;6.874;2022-10-18T02:46:01;5.90;;;5.30;;
14858;SDS011;7521;51.700;6.874;2022-10-18T02:49:07;6.50;;;5.87;;
14858;SDS011;7521;51.700;6.874;2022-10-18T02:52:12;7.07;;;6.03;;
14858;SDS011;7521;51.700;6.874;2022-10-18T02:55:17;5.53;;;5.03;;
14858;SDS011;7521;51.700;6.874;2022-10-18T02:58:22;10.67;;;5.67;;
14858;SDS011;7521;51.700;6.874;2022-10-18T03:01:27;7.82;;;5.80;;
14858;SDS011;7521;51.700;6.874;2022-10-18T03:04:32;8.05;;;6.63;;
14858;SDS011;7521;51.700;6.874;2022-10-18T03:07:38;7.57;;;5.87;;
14858;SDS011;7521;51.700;6.874;2022-10-18T03:10:43;6.43;;;5.80;;
14858;SDS011;7521;51.700;6.874;2022-10-18T03:13:49;8.33;;;6.10;;
14858;SDS011;7521;51.700;6.874;2022-10-18T03:16:56;8.50;;;6.33;;
14858;SDS011;7521;51.700;6.874;2022-10-18T03:20:02;7.57;;;5.88;;
14858;SDS011;7521;51.700;6.874;2022-10-18T03:23:07;8.80;;;6.30;;
14858;SDS011;7521;51.700;6.874;2022-10-18T03:26:12;11.33;;;8.03;;
14858;SDS011;7521;51.700;6.874;2022-10-18T03:29:17;11.93;;;7.05;;
14858;SDS011;7521;51.700;6.874;2022-10-18T03:32:22;9.50;;;7.45;;
14858;SDS011;7521;51.700;6.874;2022-10-18T03:35:27;8.65;;;6.95;;
14858;SDS011;7521;51.700;6.874;2022-10-18T03:38:33;8.77;;;6.82;;
14858;SDS011;7521;51.700;6.874;2022-10-18T03:41:38;10.97;;;6.93;;
14858;SDS011;7521;51.700;6.874;2022-10-18T03:44:43;6.65;;;6.00;;
14858;SDS011;7521;51.700;6.874;2022-10-18T03:47:48;8.17;;;6.33;;
14858;SDS011;7521;51.700;6.874;2022-10-18T03:50:53;8.45;;;6.07;;
14858;SDS011;7521;51.700;6.874;2022-10-18T03:53:59;11.87;;;7.70;;
14858;SDS011;7521;51.700;6.874;2022-10-18T03:57:04;13.50;;;7.30;;
14858;SDS011;7521;51.700;6.874;2022-10-18T04:00:09;7.80;;;6.28;;
14858;SDS011;7521;51.700;6.874;2022-10-18T04:03:14;7.80;;;6.23;;
14858;SDS011;7521;51.700;6.874;2022-10-18T04:06:20;8.70;;;6.30;;
14858;SDS011;7521;51.700;6.874;2022-10-18T04:09:25;7.13;;;5.85;;
14858;SDS011;7521;51.700;6.874;2022-10-18T04:12:30;7.10;;;5.70;;
14858;SDS011;7521;51.700;6.874;2022-10-18T04:15:35;11.13;;;5.85;;
14858;SDS011;7521;51.700;6.874;2022-10-18T04:18:40;6.70;;;6.03;;
14858;SDS011;7521;51.700;6.874;2022-10-18T04:21:46;6.07;;;5.47;;
14858;SDS011;7521;51.700;6.874;2022-10-18T04:24:51;7.10;;;5.80;;
14858;SDS011;7521;51.700;6.874;2022-10-18T04:27:57;6.53;;;5.93;;
14858;SDS011;7521;51.700;6.874;2022-10-18T04:31:02;7.10;;;6.35;;
14858;SDS011;7521;51.700;6.874;2022-10-18T04:34:08;7.55;;;5.90;;
14858;SDS011;7521;51.700;6.874;2022-10-18T04:37:13;8.67;;;6.47;;
14858;SDS011;7521;51.700;6.874;2022-10-18T04:40:18;8.80;;;6.85;;
14858;SDS011;7521;51.700;6.874;2022-10-18T04:43:26;11.03;;;7.57;;
14858;SDS011;7521;51.700;6.874;2022-10-18T04:46:31;9.48;;;6.93;;
14858;SDS011;7521;51.700;6.874;2022-10-18T04:49:36;8.00;;;6.50;;
14858;SDS011;7521;51.700;6.874;2022-10-18T04:52:41;7.27;;;6.47;;
14858;SDS011;7521;51.700;6.874;2022-10-18T04:55:47;7.75;;;6.13;;
14858;SDS011;7521;51.700;6.874;2022-10-18T04:58:52;7.63;;;6.60;;
14858;SDS011;7521;51.700;6.874;2022-10-18T05:01:58;8.18;;;6.70;;
14858;SDS011;7521;51.700;6.874;2022-10-18T05:05:03;7.90;;;5.82;;
14858;SDS011;7521;51.700;6.874;2022-10-18T05:08:08;7.23;;;6.50;;
14858;SDS011;7521;51.700;6.874;2022-10-18T05:11:13;8.70;;;6.73;;
14858;SDS011;7521;51.700;6.874;2022-10-18T05:14:19;9.70;;;6.70;;
14858;SDS011;7521;51.700;6.874;2022-10-18T05:17:24;7.70;;;6.85;;
14858;SDS011;7521;51.700;6.874;2022-10-18T05:20:29;8.50;;;7.10;;
14858;SDS011;7521;51.700;6.874;2022-10-18T05:23:34;8.13;;;6.60;;
14858;SDS011;7521;51.700;6.874;2022-10-18T05:26:39;8.07;;;6.17;;
14858;SDS011;7521;51.700;6.874;2022-10-18T05:29:44;6.93;;;6.13;;
14858;SDS011;7521;51.700;6.874;2022-10-18T05:32:50;7.15;;;6.20;;
14858;SDS011;7521;51.700;6.874;2022-10-18T05:35:55;7.73;;;5.87;;
14858;SDS011;7521;51.700;6.874;2022-10-18T05:39:03;8.43;;;7.23;;
14858;SDS011;7521;51.700;6.874;2022-10-18T05:42:09;12.03;;;7.17;;
14858;SDS011;7521;51.700;6.874;2022-10-18T05:45:14;9.30;;;5.70;;
14858;SDS011;7521;51.700;6.874;2022-10-18T05:48:19;7.60;;;6.20;;
14858;SDS011;7521;51.700;6.874;2022-10-18T05:51:24;6.80;;;5.97;;
14858;SDS011;7521;51.700;6.874;2022-10-18T05:54:30;8.90;;;6.00;;
14858;SDS011;7521;51.700;6.874;2022-10-18T05:57:35;10.93;;;6.30;;
14858;SDS011;7521;51.700;6.874;2022-10-18T06:00:40;6.50;;;5.70;;
14858;SDS011;7521;51.700;6.874;2022-10-18T06:03:46;7.33;;;6.00;;
14858;SDS011;7521;51.700;6.874;2022-10-18T06:06:51;8.03;;;6.87;;
14858;SDS011;7521;51.700;6.874;2022-10-18T06:09:57;6.13;;;5.63;;
14858;SDS011;7521;51.700;6.874;2022-10-18T06:13:03;6.70;;;6.00;;
14858;SDS011;7521;51.700;6.874;2022-10-18T06:16:08;8.70;;;6.57;;
14858;SDS011;7521;51.700;6.874;2022-10-18T06:19:13;9.27;;;7.03;;
14858;SDS011;7521;51.700;6.874;2022-10-18T06:22:19;10.83;;;9.03;;
14858;SDS011;7521;51.700;6.874;2022-10-18T06:25:24;20.98;;;10.13;;
14858;SDS011;7521;51.700;6.874;2022-10-18T06:28:29;21.40;;;12.40;;
14858;SDS011;7521;51.700;6.874;2022-10-18T06:31:34;18.87;;;11.83;;
14858;SDS011;7521;51.700;6.874;2022-10-18T06:34:40;29.02;;;15.73;;
14858;SDS011;7521;51.700;6.874;2022-10-18T06:37:45;36.88;;;18.98;;
14858;SDS011;7521;51.700;6.874;2022-10-18T06:40:50;29.60;;;17.80;;
14858;SDS011;7521;51.700;6.874;2022-10-18T06:43:55;35.47;;;19.57;;
14858;SDS011;7521;51.700;6.874;2022-10-18T06:47:02;38.73;;;23.37;;
14858;SDS011;7521;51.700;6.874;2022-10-18T06:50:07;40.90;;;24.33;;
14858;SDS011;7521;51.700;6.874;2022-10-18T06:53:13;42.33;;;25.33;;
14858;SDS011;7521;51.700;6.874;2022-10-18T06:56:18;43.38;;;25.63;;
14858;SDS011;7521;51.700;6.874;2022-10-18T06:59:23;45.88;;;27.63;;
14858;SDS011;7521;51.700;6.874;2022-10-18T07:02:28;40.80;;;25.13;;
14858;SDS011;7521;51.700;6.874;2022-10-18T07:05:34;49.67;;;27.93;;
14858;SDS011;7521;51.700;6.874;2022-10-18T07:08:39;43.57;;;27.50;;
14858;SDS011;7521;51.700;6.874;2022-10-18T07:11:44;38.90;;;26.60;;
14858;SDS011;7521;51.700;6.874;2022-10-18T07:14:49;45.88;;;29.00;;
14858;SDS011;7521;51.700;6.874;2022-10-18T07:17:54;38.67;;;27.70;;
14858;SDS011;7521;51.700;6.874;2022-10-18T07:21:03;41.27;;;28.40;;
14858;SDS011;7521;51.700;6.874;2022-10-18T07:24:09;44.63;;;29.77;;
14858;SDS011;7521;51.700;6.874;2022-10-18T07:27:14;41.83;;;28.73;;
14858;SDS011;7521;51.700;6.874;2022-10-18T07:30:19;43.00;;;29.00;;
14858;SDS011;7521;51.700;6.874;2022-10-18T07:33:25;45.83;;;27.43;;
14858;SDS011;7521;51.700;6.874;2022-10-18T07:36:32;41.83;;;27.40;;
14858;SDS011;7521;51.700;6.874;2022-10-18T07:39:38;53.13;;;28.90;;
14858;SDS011;7521;51.700;6.874;2022-10-18T07:42:43;48.25;;;30.10;;
14858;SDS011;7521;51.700;6.874;2022-10-18T07:45:55;47.10;;;29.65;;
14858;SDS011;7521;51.700;6.874;2022-10-18T07:49:00;49.40;;;30.33;;
14858;SDS011;7521;51.700;6.874;2022-10-18T07:52:06;51.20;;;30.87;;
14858;SDS011;7521;51.700;6.874;2022-10-18T07:55:11;48.83;;;29.70;;
14858;SDS011;7521;51.700;6.874;2022-10-18T07:58:16;48.70;;;30.13;;
14858;SDS011;7521;51.700;6.874;2022-10-18T08:01:22;50.15;;;31.10;;
14858;SDS011;7521;51.700;6.874;2022-10-18T08:04:27;57.40;;;30.30;;
14858;SDS011;7521;51.700;6.874;2022-10-18T08:07:32;48.97;;;29.48;;
14858;SDS011;7521;51.700;6.874;2022-10-18T08:10:37;50.57;;;28.87;;
14858;SDS011;7521;51.700;6.874;2022-10-18T08:13:43;51.72;;;27.73;;
14858;SDS011;7521;51.700;6.874;2022-10-18T08:16:48;47.10;;;27.20;;
14858;SDS011;7521;51.700;6.874;2022-10-18T08:19:53;42.30;;;26.40;;
14858;SDS011;7521;51.700;6.874;2022-10-18T08:22:58;46.95;;;27.55;;
14858;SDS011;7521;51.700;6.874;2022-10-18T08:26:05;48.77;;;27.27;;
14858;SDS011;7521;51.700;6.874;2022-10-18T08:29:10;49.97;;;27.13;;
14858;SDS011;7521;51.700;6.874;2022-10-18T08:32:17;45.37;;;27.60;;
14858;SDS011;7521;51.700;6.874;2022-10-18T08:35:22;44.27;;;27.70;;
14858;SDS011;7521;51.700;6.874;2022-10-18T08:38:28;40.97;;;26.23;;
14858;SDS011;7521;51.700;6.874;2022-10-18T08:44:41;46.73;;;26.93;;
14858;SDS011;7521;51.700;6.874;2022-10-18T08:47:47;40.87;;;25.67;;
14858;SDS011;7521;51.700;6.874;2022-10-18T08:50:53;39.40;;;25.53;;
14858;SDS011;7521;51.700;6.874;2022-10-18T08:54:09;41.43;;;25.27;;
14858;SDS011;7521;51.700;6.874;2022-10-18T08:57:15;40.60;;;26.00;;
14858;SDS011;7521;51.700;6.874;2022-10-18T09:00:23;39.90;;;25.30;;
14858;SDS011;7521;51.700;6.874;2022-10-18T09:03:34;38.97;;;23.73;;
14858;SDS011;7521;51.700;6.874;2022-10-18T09:06:54;37.30;;;24.77;;
14858;SDS011;7521;51.700;6.874;2022-10-18T09:16:18;39.97;;;21.90;;
14858;SDS011;7521;51.700;6.874;2022-10-18T09:23:03;33.47;;;21.57;;
14858;SDS011;7521;51.700;6.874;2022-10-18T09:26:11;35.43;;;21.03;;
14858;SDS011;7521;51.700;6.874;2022-10-18T09:29:35;33.87;;;19.77;;
14858;SDS011;7521;51.700;6.874;2022-10-18T09:32:48;31.37;;;19.30;;
14858;SDS011;7521;51.700;6.874;2022-10-18T09:35:56;31.93;;;17.53;;
14858;SDS011;7521;51.700;6.874;2022-10-18T09:39:03;29.37;;;16.97;;
14858;SDS011;7521;51.700;6.874;2022-10-18T09:42:17;26.70;;;14.10;;
14858;SDS011;7521;51.700;6.874;2022-10-18T09:45:39;27.20;;;15.83;;
14858;SDS011;7521;51.700;6.874;2022-10-18T09:48:49;27.17;;;17.83;;
14858;SDS011;7521;51.700;6.874;2022-10-18T09:51:55;30.47;;;18.83;;
14858;SDS011;7521;51.700;6.874;2022-10-18T09:55:04;35.67;;;19.70;;
14858;SDS011;7521;51.700;6.874;2022-10-18T09:58:10;34.83;;;19.37;;
14858;SDS011;7521;51.700;6.874;2022-10-18T10:01:18;33.97;;;19.77;;
14858;SDS011;7521;51.700;6.874;2022-10-18T10:04:25;30.00;;;18.33;;
14858;SDS011;7521;51.700;6.874;2022-10-18T10:07:33;27.67;;;17.63;;
14858;SDS011;7521;51.700;6.874;2022-10-18T10:10:39;26.40;;;16.17;;
14858;SDS011;7521;51.700;6.874;2022-10-18T10:13:45;30.10;;;15.73;;
14858;SDS011;7521;51.700;6.874;2022-10-18T10:20:03;33.50;;;18.87;;
14858;SDS011;7521;51.700;6.874;2022-10-18T10:23:20;24.70;;;15.07;;
14858;SDS011;7521;51.700;6.874;2022-10-18T10:26:32;25.30;;;14.53;;
14858;SDS011;7521;51.700;6.874;2022-10-18T10:32:50;25.83;;;16.80;;
14858;SDS011;7521;51.700;6.874;2022-10-18T10:35:59;24.33;;;13.50;;
14858;SDS011;7521;51.700;6.874;2022-10-18T10:39:05;25.43;;;12.30;;
14858;SDS011;7521;51.700;6.874;2022-10-18T10:42:11;25.07;;;10.90;;
14858;SDS011;7521;51.700;6.874;2022-10-18T10:45:16;22.63;;;12.03;;
14858;SDS011;7521;51.700;6.874;2022-10-18T10:48:23;22.60;;;10.80;;
14858;SDS011;7521;51.700;6.874;2022-10-18T10:54:35;22.93;;;10.03;;
14858;SDS011;7521;51.700;6.874;2022-10-18T10:57:43;16.00;;;9.10;;
14858;SDS011;7521;51.700;6.874;2022-10-18T11:00:49;28.47;;;16.17;;
14858;SDS011;7521;51.700;6.874;2022-10-18T11:03:56;32.20;;;22.10;;
14858;SDS011;7521;51.700;6.874;2022-10-18T11:13:21;29.67;;;16.10;;
14858;SDS011;7521;51.700;6.874;2022-10-18T11:16:31;19.23;;;9.23;;
14858;SDS011;7521;51.700;6.874;2022-10-18T11:25:54;21.20;;;9.60;;
14858;SDS011;7521;51.700;6.874;2022-10-18T11:32:29;24.90;;;13.03;;
14858;SDS011;7521;51.700;6.874;2022-10-18T11:35:40;17.47;;;8.13;;
14858;SDS011;7521;51.700;6.874;2022-10-18T11:38:55;14.47;;;7.00;;
14858;SDS011;7521;51.700;6.874;2022-10-18T11:48:39;12.77;;;5.80;;
14858;SDS011;7521;51.700;6.874;2022-10-18T11:58:07;16.37;;;8.50;;
14858;SDS011;7521;51.700;6.874;2022-10-18T12:01:22;20.07;;;13.63;;
14858;SDS011;7521;51.700;6.874;2022-10-18T12:04:33;14.97;;;7.57;;
14858;SDS011;7521;51.700;6.874;2022-10-18T12:07:41;14.97;;;3.97;;
14858;SDS011;7521;51.700;6.874;2022-10-18T12:10:48;10.17;;;3.97;;
14858;SDS011;7521;51.700;6.874;2022-10-18T12:13:55;13.23;;;3.90;;
14858;SDS011;7521;51.700;6.874;2022-10-18T12:17:03;13.97;;;3.70;;
14858;SDS011;7521;51.700;6.874;2022-10-18T12:20:14;11.03;;;2.50;;
14858;SDS011;7521;51.700;6.874;2022-10-18T12:23:25;13.13;;;3.30;;
14858;SDS011;7521;51.700;6.874;2022-10-18T12:26:34;15.23;;;3.20;;
14858;SDS011;7521;51.700;6.874;2022-10-18T12:32:52;11.23;;;3.10;;
14858;SDS011;7521;51.700;6.874;2022-10-18T12:39:27;12.03;;;3.43;;
14858;SDS011;7521;51.700;6.874;2022-10-18T12:42:39;11.53;;;2.67;;
14858;SDS011;7521;51.700;6.874;2022-10-18T12:45:47;11.00;;;2.93;;
14858;SDS011;7521;51.700;6.874;2022-10-18T12:49:00;13.87;;;3.30;;
14858;SDS011;7521;51.700;6.874;2022-10-18T12:52:17;12.33;;;2.60;;
14858;SDS011;7521;51.700;6.874;2022-10-18T12:58:29;9.97;;;2.90;;
14858;SDS011;7521;51.700;6.874;2022-10-18T13:04:58;11.87;;;3.00;;
14858;SDS011;7521;51.700;6.874;2022-10-18T13:11:29;8.63;;;2.23;;
14858;SDS011;7521;51.700;6.874;2022-10-18T13:17:58;10.37;;;2.50;;
14858;SDS011;7521;51.700;6.874;2022-10-18T13:21:09;11.80;;;3.03;;
14858;SDS011;7521;51.700;6.874;2022-10-18T13:37:26;7.33;;;2.10;;
14858;SDS011;7521;51.700;6.874;2022-10-18T13:40:33;7.03;;;2.00;;
14858;SDS011;7521;51.700;6.874;2022-10-18T13:50:15;5.83;;;1.40;;
14858;SDS011;7521;51.700;6.874;2022-10-18T13:53:25;8.03;;;1.57;;
14858;SDS011;7521;51.700;6.874;2022-10-18T13:56:45;8.37;;;2.00;;
14858;SDS011;7521;51.700;6.874;2022-10-18T14:03:42;8.70;;;1.73;;
14858;SDS011;7521;51.700;6.874;2022-10-18T14:06:44;5.17;;;1.27;;
14858;SDS011;7521;51.700;6.874;2022-10-18T14:09:50;5.63;;;1.20;;
14858;SDS011;7521;51.700;6.874;2022-10-18T14:12:56;6.73;;;1.60;;
14858;SDS011;7521;51.700;6.874;2022-10-18T14:16:16;8.10;;;1.60;;
14858;SDS011;7521;51.700;6.874;2022-10-18T14:19:41;6.00;;;1.57;;
14858;SDS011;7521;51.700;6.874;2022-10-18T14:22:50;6.07;;;1.40;;
14858;SDS011;7521;51.700;6.874;2022-10-18T14:26:07;8.53;;;1.40;;
14858;SDS011;7521;51.700;6.874;2022-10-18T14:29:17;6.13;;;1.60;;
14858;SDS011;7521;51.700;6.874;2022-10-18T14:32:27;9.07;;;2.10;;
14858;SDS011;7521;51.700;6.874;2022-10-18T14:35:32;7.57;;;1.73;;
14858;SDS011;7521;51.700;6.874;2022-10-18T14:38:52;7.20;;;1.40;;
14858;SDS011;7521;51.700;6.874;2022-10-18T14:41:58;6.90;;;1.83;;
14858;SDS011;7521;51.700;6.874;2022-10-18T14:45:16;6.10;;;1.23;;
14858;SDS011;7521;51.700;6.874;2022-10-18T14:48:21;8.23;;;1.83;;
14858;SDS011;7521;51.700;6.874;2022-10-18T14:51:28;4.97;;;1.30;;
14858;SDS011;7521;51.700;6.874;2022-10-18T14:54:36;7.13;;;1.60;;
14858;SDS011;7521;51.700;6.874;2022-10-18T14:57:42;6.83;;;1.27;;
14858;SDS011;7521;51.700;6.874;2022-10-18T15:00:47;7.28;;;1.25;;
14858;SDS011;7521;51.700;6.874;2022-10-18T15:03:56;4.40;;;1.10;;
14858;SDS011;7521;51.700;6.874;2022-10-18T15:07:02;5.33;;;1.40;;
14858;SDS011;7521;51.700;6.874;2022-10-18T15:10:15;6.50;;;1.50;;
14858;SDS011;7521;51.700;6.874;2022-10-18T15:13:21;7.97;;;1.70;;
14858;SDS011;7521;51.700;6.874;2022-10-18T15:16:27;10.00;;;2.57;;
14858;SDS011;7521;51.700;6.874;2022-10-18T15:19:34;6.73;;;1.47;;
14858;SDS011;7521;51.700;6.874;2022-10-18T15:22:39;8.13;;;1.33;;
14858;SDS011;7521;51.700;6.874;2022-10-18T15:25:44;6.63;;;1.48;;
14858;SDS011;7521;51.700;6.874;2022-10-18T15:28:50;6.47;;;1.90;;
14858;SDS011;7521;51.700;6.874;2022-10-18T15:32:02;6.80;;;1.63;;
14858;SDS011;7521;51.700;6.874;2022-10-18T15:35:12;8.50;;;1.40;;
14858;SDS011;7521;51.700;6.874;2022-10-18T15:44:49;8.37;;;1.33;;
14858;SDS011;7521;51.700;6.874;2022-10-18T15:48:02;6.10;;;1.67;;
14858;SDS011;7521;51.700;6.874;2022-10-18T15:51:32;8.07;;;1.50;;
14858;SDS011;7521;51.700;6.874;2022-10-18T15:54:44;10.73;;;2.73;;
14858;SDS011;7521;51.700;6.874;2022-10-18T15:57:49;5.50;;;2.67;;
14858;SDS011;7521;51.700;6.874;2022-10-18T16:00:58;4.03;;;1.57;;
14858;SDS011;7521;51.700;6.874;2022-10-18T16:04:06;8.37;;;2.23;;
14858;SDS011;7521;51.700;6.874;2022-10-18T16:07:12;6.87;;;2.30;;
14858;SDS011;7521;51.700;6.874;2022-10-18T16:10:17;5.83;;;2.03;;
14858;SDS011;7521;51.700;6.874;2022-10-18T16:13:22;8.47;;;2.40;;
14858;SDS011;7521;51.700;6.874;2022-10-18T16:16:28;6.00;;;2.10;;
14858;SDS011;7521;51.700;6.874;2022-10-18T16:19:33;6.83;;;1.50;;
14858;SDS011;7521;51.700;6.874;2022-10-18T16:22:38;7.20;;;1.30;;
14858;SDS011;7521;51.700;6.874;2022-10-18T16:25:44;6.80;;;1.77;;
14858;SDS011;7521;51.700;6.874;2022-10-18T16:28:49;6.63;;;1.30;;
14858;SDS011;7521;51.700;6.874;2022-10-18T16:31:54;6.33;;;1.40;;
14858;SDS011;7521;51.700;6.874;2022-10-18T16:35:02;5.73;;;1.23;;
14858;SDS011;7521;51.700;6.874;2022-10-18T16:38:10;6.50;;;1.63;;
14858;SDS011;7521;51.700;6.874;2022-10-18T16:41:20;7.57;;;1.60;;
14858;SDS011;7521;51.700;6.874;2022-10-18T16:44:26;5.20;;;1.20;;
14858;SDS011;7521;51.700;6.874;2022-10-18T16:47:31;4.68;;;1.40;;
14858;SDS011;7521;51.700;6.874;2022-10-18T16:50:36;5.85;;;1.48;;
14858;SDS011;7521;51.700;6.874;2022-10-18T16:53:42;4.63;;;1.17;;
14858;SDS011;7521;51.700;6.874;2022-10-18T16:56:47;5.53;;;1.00;;
14858;SDS011;7521;51.700;6.874;2022-10-18T16:59:53;7.53;;;1.53;;
14858;SDS011;7521;51.700;6.874;2022-10-18T17:02:59;6.20;;;2.13;;
14858;SDS011;7521;51.700;6.874;2022-10-18T17:06:04;6.83;;;1.57;;
14858;SDS011;7521;51.700;6.874;2022-10-18T17:09:10;4.93;;;1.30;;
14858;SDS011;7521;51.700;6.874;2022-10-18T17:12:16;7.83;;;1.40;;
14858;SDS011;7521;51.700;6.874;2022-10-18T17:15:21;8.18;;;1.52;;
14858;SDS011;7521;51.700;6.874;2022-10-18T17:18:26;7.37;;;1.10;;
14858;SDS011;7521;51.700;6.874;2022-10-18T17:21:31;5.73;;;1.40;;
14858;SDS011;7521;51.700;6.874;2022-10-18T17:24:37;7.00;;;1.20;;
14858;SDS011;7521;51.700;6.874;2022-10-18T17:27:42;6.90;;;1.67;;
14858;SDS011;7521;51.700;6.874;2022-10-18T17:30:48;7.03;;;1.73;;
14858;SDS011;7521;51.700;6.874;2022-10-18T17:33:53;5.53;;;1.77;;
14858;SDS011;7521;51.700;6.874;2022-10-18T17:36:59;3.27;;;1.40;;
14858;SDS011;7521;51.700;6.874;2022-10-18T17:40:05;6.13;;;1.87;;
14858;SDS011;7521;51.700;6.874;2022-10-18T17:43:10;8.57;;;1.63;;
14858;SDS011;7521;51.700;6.874;2022-10-18T17:46:17;6.77;;;1.40;;
14858;SDS011;7521;51.700;6.874;2022-10-18T17:49:23;10.50;;;2.17;;
14858;SDS011;7521;51.700;6.874;2022-10-18T17:52:29;6.67;;;1.20;;
14858;SDS011;7521;51.700;6.874;2022-10-18T17:55:34;7.87;;;1.43;;
14858;SDS011;7521;51.700;6.874;2022-10-18T17:58:39;12.70;;;1.98;;
14858;SDS011;7521;51.700;6.874;2022-10-18T18:01:47;4.17;;;1.13;;
14858;SDS011;7521;51.700;6.874;2022-10-18T18:04:52;9.70;;;1.77;;
14858;SDS011;7521;51.700;6.874;2022-10-18T18:07:58;8.50;;;1.30;;
14858;SDS011;7521;51.700;6.874;2022-10-18T18:11:03;5.60;;;1.60;;
14858;SDS011;7521;51.700;6.874;2022-10-18T18:14:09;8.10;;;2.17;;
14858;SDS011;7521;51.700;6.874;2022-10-18T18:17:15;8.77;;;2.30;;
14858;SDS011;7521;51.700;6.874;2022-10-18T18:20:20;8.00;;;2.60;;
14858;SDS011;7521;51.700;6.874;2022-10-18T18:23:26;13.97;;;2.70;;
14858;SDS011;7521;51.700;6.874;2022-10-18T18:26:31;6.55;;;2.35;;
14858;SDS011;7521;51.700;6.874;2022-10-18T18:29:37;6.53;;;2.30;;
14858;SDS011;7521;51.700;6.874;2022-10-18T18:32:42;7.63;;;2.63;;
14858;SDS011;7521;51.700;6.874;2022-10-18T18:35:57;8.43;;;2.58;;
14858;SDS011;7521;51.700;6.874;2022-10-18T18:39:02;12.13;;;2.50;;
14858;SDS011;7521;51.700;6.874;2022-10-18T18:42:09;5.03;;;1.90;;
14858;SDS011;7521;51.700;6.874;2022-10-18T18:45:14;6.50;;;1.80;;
14858;SDS011;7521;51.700;6.874;2022-10-18T18:48:19;5.57;;;1.63;;
14858;SDS011;7521;51.700;6.874;2022-10-18T18:51:25;11.15;;;2.15;;
14858;SDS011;7521;51.700;6.874;2022-10-18T18:54:30;13.87;;;3.23;;
14858;SDS011;7521;51.700;6.874;2022-10-18T18:57:35;4.53;;;2.17;;
14858;SDS011;7521;51.700;6.874;2022-10-18T19:00:41;6.30;;;2.35;;
14858;SDS011;7521;51.700;6.874;2022-10-18T19:03:47;5.70;;;2.00;;
14858;SDS011;7521;51.700;6.874;2022-10-18T19:06:52;6.67;;;2.80;;
14858;SDS011;7521;51.700;6.874;2022-10-18T19:09:57;9.15;;;2.38;;
14858;SDS011;7521;51.700;6.874;2022-10-18T19:13:02;8.95;;;2.65;;
14858;SDS011;7521;51.700;6.874;2022-10-18T19:16:09;6.32;;;2.60;;
14858;SDS011;7521;51.700;6.874;2022-10-18T19:19:15;9.60;;;2.83;;
14858;SDS011;7521;51.700;6.874;2022-10-18T19:22:21;5.30;;;2.40;;
14858;SDS011;7521;51.700;6.874;2022-10-18T19:25:26;11.55;;;2.70;;
14858;SDS011;7521;51.700;6.874;2022-10-18T19:28:31;10.43;;;2.92;;
14858;SDS011;7521;51.700;6.874;2022-10-18T19:31:37;5.25;;;2.33;;
14858;SDS011;7521;51.700;6.874;2022-10-18T19:34:42;9.93;;;2.57;;
14858;SDS011;7521;51.700;6.874;2022-10-18T19:37:47;5.47;;;1.90;;
14858;SDS011;7521;51.700;6.874;2022-10-18T19:40:53;9.77;;;1.88;;
14858;SDS011;7521;51.700;6.874;2022-10-18T19:43:58;4.27;;;1.80;;
14858;SDS011;7521;51.700;6.874;2022-10-18T19:47:08;3.57;;;1.77;;
14858;SDS011;7521;51.700;6.874;2022-10-18T19:50:14;4.17;;;1.80;;
14858;SDS011;7521;51.700;6.874;2022-10-18T19:53:19;3.90;;;2.23;;
14858;SDS011;7521;51.700;6.874;2022-10-18T19:56:25;6.00;;;2.17;;
14858;SDS011;7521;51.700;6.874;2022-10-18T19:59:30;5.80;;;2.10;;
14858;SDS011;7521;51.700;6.874;2022-10-18T20:02:35;8.03;;;2.67;;
14858;SDS011;7521;51.700;6.874;2022-10-18T20:05:40;12.38;;;2.53;;
14858;SDS011;7521;51.700;6.874;2022-10-18T20:08:46;9.60;;;2.30;;
14858;SDS011;7521;51.700;6.874;2022-10-18T20:11:51;4.33;;;2.07;;
14858;SDS011;7521;51.700;6.874;2022-10-18T20:14:56;4.45;;;2.25;;
14858;SDS011;7521;51.700;6.874;2022-10-18T20:18:01;6.82;;;2.00;;
14858;SDS011;7521;51.700;6.874;2022-10-18T20:21:07;7.40;;;2.10;;
14858;SDS011;7521;51.700;6.874;2022-10-18T20:24:12;11.57;;;2.33;;
14858;SDS011;7521;51.700;6.874;2022-10-18T20:27:18;5.60;;;2.20;;
14858;SDS011;7521;51.700;6.874;2022-10-18T20:30:23;5.32;;;2.10;;
14858;SDS011;7521;51.700;6.874;2022-10-18T20:33:28;6.50;;;2.22;;
14858;SDS011;7521;51.700;6.874;2022-10-18T20:36:34;11.70;;;2.90;;
14858;SDS011;7521;51.700;6.874;2022-10-18T20:39:39;6.77;;;2.43;;
14858;SDS011;7521;51.700;6.874;2022-10-18T20:42:44;11.73;;;2.57;;
14858;SDS011;7521;51.700;6.874;2022-10-18T20:45:54;9.80;;;2.25;;
14858;SDS011;7521;51.700;6.874;2022-10-18T20:49:00;6.10;;;2.60;;
14858;SDS011;7521;51.700;6.874;2022-10-18T20:52:05;14.63;;;3.30;;